OYBBC GCTS-GCRR
Flight info
| Callsign | OYBBC |
|---|---|
| Flight time | N/A |
| Altitude | 6000 |
| Route | RASEP |
| Aircraft | PA24/L-SDGRY/S |
Departure
| Time | N/A |
|---|---|
| Airport | Tenerife Sur Airport (GCTS) |
Arrival
| Time | 2026-04-28 08:51 |
|---|---|
| Airport | César Manrique-Lanzarote Airport (GCRR) |
| Time | Latitude | Longitude | Altitude | Speed | Heading |
|---|---|---|---|---|---|
| 2026-04-28 07:51 | 28.11724 | -16.04100 | 4669 ft | 157 kts | 83° |
| 2026-04-28 07:51 | 28.11858 | -16.02873 | 4693 ft | 157 kts | 83° |
| 2026-04-28 07:51 | 28.11992 | -16.01644 | 4714 ft | 157 kts | 83° |
| 2026-04-28 07:52 | 28.12059 | -16.00408 | 4729 ft | 157 kts | 90° |
| 2026-04-28 07:52 | 28.12034 | -15.99193 | 4860 ft | 151 kts | 91° |
| 2026-04-28 07:52 | 28.12003 | -15.97996 | 4890 ft | 154 kts | 91° |
| 2026-04-28 07:52 | 28.11973 | -15.96815 | 5085 ft | 145 kts | 91° |
| 2026-04-28 07:53 | 28.11943 | -15.95668 | 5157 ft | 149 kts | 91° |
| 2026-04-28 07:53 | 28.11913 | -15.94482 | 5215 ft | 150 kts | 91° |
| 2026-04-28 07:53 | 28.11885 | -15.93318 | 5351 ft | 147 kts | 91° |
| 2026-04-28 07:53 | 28.11856 | -15.92147 | 5399 ft | 150 kts | 91° |
| 2026-04-28 07:54 | 28.11828 | -15.90971 | 5501 ft | 149 kts | 91° |
| 2026-04-28 07:54 | 28.11791 | -15.90196 | 5559 ft | 149 kts | 94° |
| 2026-04-28 07:54 | 28.11713 | -15.89023 | 5623 ft | 150 kts | 94° |
| 2026-04-28 07:54 | 28.11633 | -15.87847 | 5712 ft | 149 kts | 94° |
| 2026-04-28 07:55 | 28.11528 | -15.86293 | 5806 ft | 150 kts | 94° |
| 2026-04-28 07:55 | 28.11449 | -15.85113 | 5882 ft | 150 kts | 94° |
| 2026-04-28 07:55 | 28.11395 | -15.84317 | 5933 ft | 150 kts | 94° |
| 2026-04-28 07:55 | 28.11317 | -15.83137 | 6000 ft | 150 kts | 94° |
| 2026-04-28 07:56 | 28.11239 | -15.81957 | 6071 ft | 150 kts | 94° |
| 2026-04-28 07:56 | 28.11162 | -15.80775 | 6138 ft | 151 kts | 94° |
| 2026-04-28 07:56 | 28.11085 | -15.79597 | 6133 ft | 155 kts | 94° |
| 2026-04-28 07:56 | 28.11006 | -15.78368 | 6156 ft | 155 kts | 94° |
| 2026-04-28 07:57 | 28.10929 | -15.77166 | 6228 ft | 153 kts | 94° |
| 2026-04-28 07:57 | 28.10851 | -15.75944 | 6209 ft | 157 kts | 94° |
| 2026-04-28 07:57 | 28.10774 | -15.74724 | 6264 ft | 155 kts | 94° |
| 2026-04-28 07:57 | 28.10696 | -15.73495 | 6242 ft | 158 kts | 94° |
| 2026-04-28 07:58 | 28.10619 | -15.72256 | 6266 ft | 157 kts | 94° |
| 2026-04-28 07:58 | 28.10542 | -15.71018 | 6241 ft | 159 kts | 94° |
| 2026-04-28 07:58 | 28.10465 | -15.69759 | 6224 ft | 160 kts | 94° |
| 2026-04-28 07:58 | 28.10390 | -15.68530 | 6246 ft | 158 kts | 94° |
| 2026-04-28 07:59 | 28.10314 | -15.67277 | 6221 ft | 160 kts | 94° |
| 2026-04-28 07:59 | 28.10238 | -15.66019 | 6214 ft | 160 kts | 94° |
| 2026-04-28 07:59 | 28.10164 | -15.64761 | 6200 ft | 160 kts | 94° |
| 2026-04-28 07:59 | 28.10089 | -15.63499 | 6180 ft | 160 kts | 94° |
| 2026-04-28 08:00 | 28.10016 | -15.62244 | 6179 ft | 160 kts | 94° |
| 2026-04-28 08:00 | 28.09943 | -15.60984 | 6159 ft | 160 kts | 94° |
| 2026-04-28 08:00 | 28.09870 | -15.59724 | 6149 ft | 160 kts | 94° |
| 2026-04-28 08:00 | 28.09798 | -15.58470 | 6146 ft | 159 kts | 94° |
| 2026-04-28 08:01 | 28.09727 | -15.57214 | 6132 ft | 160 kts | 94° |
| 2026-04-28 08:01 | 28.09657 | -15.55959 | 6125 ft | 160 kts | 94° |
| 2026-04-28 08:01 | 28.09588 | -15.54717 | 6105 ft | 160 kts | 94° |
| 2026-04-28 08:01 | 28.09519 | -15.53465 | 6115 ft | 159 kts | 94° |
| 2026-04-28 08:02 | 28.09449 | -15.52214 | 6112 ft | 159 kts | 94° |
| 2026-04-28 08:02 | 28.09381 | -15.50964 | 6114 ft | 159 kts | 94° |
| 2026-04-28 08:02 | 28.09314 | -15.49715 | 6115 ft | 159 kts | 93° |
| 2026-04-28 08:02 | 28.09248 | -15.48465 | 6109 ft | 159 kts | 93° |
| 2026-04-28 08:03 | 28.09182 | -15.47216 | 6115 ft | 159 kts | 93° |
| 2026-04-28 08:03 | 28.09116 | -15.45968 | 6115 ft | 159 kts | 93° |
| 2026-04-28 08:03 | 28.09052 | -15.44717 | 6113 ft | 159 kts | 93° |
| 2026-04-28 08:03 | 28.09050 | -15.43466 | 6118 ft | 159 kts | 88° |
| 2026-04-28 08:04 | 28.09081 | -15.42217 | 6127 ft | 158 kts | 88° |
| 2026-04-28 08:04 | 28.09113 | -15.40970 | 6133 ft | 159 kts | 88° |
| 2026-04-28 08:04 | 28.09145 | -15.39723 | 6140 ft | 158 kts | 88° |
| 2026-04-28 08:04 | 28.09177 | -15.38476 | 6140 ft | 158 kts | 88° |
| 2026-04-28 08:05 | 28.09211 | -15.37227 | 6143 ft | 158 kts | 88° |
| 2026-04-28 08:05 | 28.09246 | -15.35982 | 6148 ft | 158 kts | 88° |
| 2026-04-28 08:05 | 28.09280 | -15.34735 | 6150 ft | 158 kts | 88° |
| 2026-04-28 08:05 | 28.09315 | -15.33505 | 6154 ft | 158 kts | 88° |
| 2026-04-28 08:06 | 28.09352 | -15.32241 | 6156 ft | 159 kts | 88° |
| 2026-04-28 08:06 | 28.09389 | -15.30994 | 6160 ft | 158 kts | 88° |
| 2026-04-28 08:06 | 28.09426 | -15.29745 | 6163 ft | 159 kts | 88° |
| 2026-04-28 08:06 | 28.09464 | -15.28511 | 6166 ft | 158 kts | 88° |
| 2026-04-28 08:07 | 28.09503 | -15.27265 | 6169 ft | 158 kts | 88° |
| 2026-04-28 08:07 | 28.09542 | -15.26016 | 6172 ft | 158 kts | 88° |
| 2026-04-28 08:07 | 28.09581 | -15.24768 | 6175 ft | 158 kts | 88° |
| 2026-04-28 08:07 | 28.09622 | -15.23520 | 6179 ft | 158 kts | 88° |
| 2026-04-28 08:08 | 28.09662 | -15.22274 | 6184 ft | 158 kts | 88° |
| 2026-04-28 08:08 | 28.09704 | -15.21025 | 6185 ft | 159 kts | 88° |
| 2026-04-28 08:08 | 28.09746 | -15.19778 | 6188 ft | 158 kts | 88° |
| 2026-04-28 08:08 | 28.09789 | -15.18529 | 6193 ft | 158 kts | 88° |
| 2026-04-28 08:09 | 28.09832 | -15.17281 | 6194 ft | 159 kts | 88° |
| 2026-04-28 08:09 | 28.09876 | -15.16034 | 6198 ft | 158 kts | 88° |
| 2026-04-28 08:09 | 28.09920 | -15.14788 | 6203 ft | 158 kts | 88° |
| 2026-04-28 08:09 | 28.09965 | -15.13542 | 6205 ft | 158 kts | 88° |
| 2026-04-28 08:10 | 28.10011 | -15.12295 | 6209 ft | 158 kts | 88° |
| 2026-04-28 08:10 | 28.10057 | -15.11050 | 6217 ft | 158 kts | 88° |
| 2026-04-28 08:10 | 28.10104 | -15.09804 | 6219 ft | 158 kts | 88° |
| 2026-04-28 08:10 | 28.10151 | -15.08572 | 6228 ft | 158 kts | 87° |
| 2026-04-28 08:11 | 28.10199 | -15.07325 | 6228 ft | 158 kts | 87° |
| 2026-04-28 08:11 | 28.10247 | -15.06075 | 6230 ft | 158 kts | 87° |
| 2026-04-28 08:11 | 28.10296 | -15.04829 | 6235 ft | 158 kts | 87° |
| 2026-04-28 08:11 | 28.10346 | -15.03580 | 6239 ft | 158 kts | 87° |
| 2026-04-28 08:12 | 28.10397 | -15.02332 | 6243 ft | 158 kts | 87° |
| 2026-04-28 08:12 | 28.10447 | -15.01085 | 6248 ft | 158 kts | 87° |
| 2026-04-28 08:12 | 28.10499 | -14.99840 | 6252 ft | 158 kts | 87° |
| 2026-04-28 08:12 | 28.10551 | -14.98593 | 6255 ft | 158 kts | 87° |
| 2026-04-28 08:13 | 28.10604 | -14.97348 | 6261 ft | 158 kts | 87° |
| 2026-04-28 08:13 | 28.10657 | -14.96103 | 6264 ft | 158 kts | 87° |
| 2026-04-28 08:13 | 28.10711 | -14.94855 | 6268 ft | 158 kts | 87° |
| 2026-04-28 08:13 | 28.10765 | -14.93610 | 6272 ft | 158 kts | 87° |
| 2026-04-28 08:14 | 28.10819 | -14.92381 | 6275 ft | 158 kts | 87° |
| 2026-04-28 08:14 | 28.10875 | -14.91136 | 6280 ft | 158 kts | 87° |
| 2026-04-28 08:14 | 28.10931 | -14.89890 | 6285 ft | 158 kts | 87° |
| 2026-04-28 08:14 | 28.10988 | -14.88641 | 6288 ft | 158 kts | 87° |
| 2026-04-28 08:15 | 28.11046 | -14.87395 | 6291 ft | 158 kts | 87° |
| 2026-04-28 08:15 | 28.11104 | -14.86147 | 6293 ft | 158 kts | 87° |
| 2026-04-28 08:15 | 28.11163 | -14.84900 | 6296 ft | 158 kts | 87° |
| 2026-04-28 08:15 | 28.11222 | -14.83654 | 6300 ft | 158 kts | 87° |
| 2026-04-28 08:16 | 28.11281 | -14.82407 | 6302 ft | 158 kts | 87° |
| 2026-04-28 08:16 | 28.11341 | -14.81162 | 6307 ft | 158 kts | 86° |
| 2026-04-28 08:16 | 28.11402 | -14.79916 | 6309 ft | 158 kts | 86° |
| 2026-04-28 08:16 | 28.11463 | -14.78688 | 6313 ft | 158 kts | 86° |
| 2026-04-28 08:17 | 28.11525 | -14.77441 | 6318 ft | 158 kts | 86° |
| 2026-04-28 08:17 | 28.11588 | -14.76194 | 6319 ft | 158 kts | 86° |
| 2026-04-28 08:17 | 28.11651 | -14.74946 | 6325 ft | 158 kts | 86° |
| 2026-04-28 08:17 | 28.11715 | -14.73701 | 6328 ft | 158 kts | 86° |
| 2026-04-28 08:18 | 28.11779 | -14.72456 | 6331 ft | 158 kts | 86° |
| 2026-04-28 08:18 | 28.11844 | -14.71210 | 6335 ft | 158 kts | 86° |
| 2026-04-28 08:18 | 28.11910 | -14.69965 | 6340 ft | 158 kts | 86° |
| 2026-04-28 08:18 | 28.11976 | -14.68720 | 6343 ft | 158 kts | 86° |
| 2026-04-28 08:19 | 28.12042 | -14.67475 | 6347 ft | 158 kts | 86° |
| 2026-04-28 08:19 | 28.12110 | -14.66231 | 6351 ft | 158 kts | 86° |
| 2026-04-28 08:19 | 28.12178 | -14.64985 | 6353 ft | 158 kts | 86° |
| 2026-04-28 08:19 | 28.12247 | -14.63740 | 6359 ft | 158 kts | 86° |
| 2026-04-28 08:20 | 28.12316 | -14.62495 | 6362 ft | 158 kts | 86° |
| 2026-04-28 08:20 | 28.12385 | -14.61249 | 6365 ft | 158 kts | 86° |
| 2026-04-28 08:20 | 28.12456 | -14.60004 | 6365 ft | 158 kts | 86° |
| 2026-04-28 08:20 | 28.12526 | -14.58760 | 6369 ft | 158 kts | 86° |
| 2026-04-28 08:21 | 28.12598 | -14.57515 | 6377 ft | 158 kts | 86° |
| 2026-04-28 08:21 | 28.12670 | -14.56271 | 6384 ft | 158 kts | 86° |
| 2026-04-28 08:21 | 28.12743 | -14.55026 | 6387 ft | 158 kts | 86° |
| 2026-04-28 08:21 | 28.12815 | -14.53794 | 6389 ft | 158 kts | 86° |
| 2026-04-28 08:22 | 28.12889 | -14.52549 | 6393 ft | 158 kts | 86° |
| 2026-04-28 08:22 | 28.12964 | -14.51302 | 6394 ft | 158 kts | 86° |
| 2026-04-28 08:22 | 28.13039 | -14.50055 | 6399 ft | 158 kts | 86° |
| 2026-04-28 08:22 | 28.13114 | -14.48811 | 6403 ft | 158 kts | 86° |
| 2026-04-28 08:23 | 28.13190 | -14.47566 | 6406 ft | 158 kts | 86° |
| 2026-04-28 08:23 | 28.13267 | -14.46321 | 6411 ft | 158 kts | 86° |
| 2026-04-28 08:23 | 28.13344 | -14.45076 | 6414 ft | 158 kts | 86° |
| 2026-04-28 08:23 | 28.13422 | -14.43832 | 6416 ft | 158 kts | 86° |
| 2026-04-28 08:24 | 28.13501 | -14.42585 | 6420 ft | 158 kts | 86° |
| 2026-04-28 08:24 | 28.13580 | -14.41340 | 6424 ft | 158 kts | 86° |
| 2026-04-28 08:24 | 28.13660 | -14.40096 | 6427 ft | 158 kts | 86° |
| 2026-04-28 08:24 | 28.13740 | -14.38851 | 6430 ft | 158 kts | 85° |
| 2026-04-28 08:25 | 28.13821 | -14.37607 | 6433 ft | 158 kts | 85° |
| 2026-04-28 08:25 | 28.13903 | -14.36362 | 6436 ft | 158 kts | 85° |
| 2026-04-28 08:25 | 28.13984 | -14.35133 | 6438 ft | 158 kts | 85° |
| 2026-04-28 08:26 | 28.14261 | -14.32655 | 6441 ft | 158 kts | 79° |
| 2026-04-28 08:26 | 28.14473 | -14.31431 | 6448 ft | 158 kts | 78° |
| 2026-04-28 08:26 | 28.14689 | -14.30204 | 6446 ft | 159 kts | 78° |
| 2026-04-28 08:26 | 28.14905 | -14.28978 | 6446 ft | 159 kts | 78° |
| 2026-04-28 08:27 | 28.15123 | -14.27751 | 6444 ft | 159 kts | 78° |
| 2026-04-28 08:27 | 28.15341 | -14.26523 | 6438 ft | 159 kts | 78° |
| 2026-04-28 08:27 | 28.15560 | -14.25298 | 6443 ft | 158 kts | 78° |
| 2026-04-28 08:27 | 28.15794 | -14.24077 | 6439 ft | 159 kts | 74° |
| 2026-04-28 08:28 | 28.16134 | -14.22878 | 6435 ft | 159 kts | 71° |
| 2026-04-28 08:28 | 28.16480 | -14.21698 | 6461 ft | 158 kts | 71° |
| 2026-04-28 08:28 | 28.16823 | -14.20531 | 6454 ft | 159 kts | 71° |
| 2026-04-28 08:28 | 28.17173 | -14.19345 | 6464 ft | 158 kts | 71° |
| 2026-04-28 08:29 | 28.17534 | -14.18167 | 6471 ft | 158 kts | 68° |
| 2026-04-28 08:29 | 28.17976 | -14.17021 | 6465 ft | 159 kts | 62° |
| 2026-04-28 08:29 | 28.18548 | -14.15947 | 6471 ft | 159 kts | 57° |
| 2026-04-28 08:29 | 28.19135 | -14.14894 | 6494 ft | 157 kts | 57° |
| 2026-04-28 08:30 | 28.19725 | -14.13843 | 6485 ft | 159 kts | 57° |
| 2026-04-28 08:30 | 28.20318 | -14.12789 | 6497 ft | 158 kts | 57° |
| 2026-04-28 08:30 | 28.20910 | -14.11739 | 6504 ft | 158 kts | 57° |
| 2026-04-28 08:30 | 28.21502 | -14.10689 | 6507 ft | 158 kts | 57° |
| 2026-04-28 08:31 | 28.22095 | -14.09639 | 6510 ft | 158 kts | 57° |
| 2026-04-28 08:31 | 28.22691 | -14.08586 | 6495 ft | 159 kts | 57° |
| 2026-04-28 08:31 | 28.23287 | -14.07536 | 6513 ft | 158 kts | 57° |
| 2026-04-28 08:31 | 28.23882 | -14.06487 | 6514 ft | 158 kts | 57° |
| 2026-04-28 08:32 | 28.24551 | -14.05492 | 6486 ft | 160 kts | 47° |
| 2026-04-28 08:32 | 28.25298 | -14.04569 | 6519 ft | 157 kts | 47° |
| 2026-04-28 08:32 | 28.26062 | -14.03683 | 6512 ft | 158 kts | 41° |
| 2026-04-28 08:32 | 28.26899 | -14.02864 | 6505 ft | 158 kts | 40° |
| 2026-04-28 08:33 | 28.27735 | -14.02059 | 6526 ft | 157 kts | 40° |
| 2026-04-28 08:33 | 28.28563 | -14.01264 | 6512 ft | 158 kts | 40° |
| 2026-04-28 08:33 | 28.29402 | -14.00457 | 6521 ft | 158 kts | 39° |
| 2026-04-28 08:33 | 28.30241 | -13.99654 | 6527 ft | 158 kts | 39° |
| 2026-04-28 08:34 | 28.31082 | -13.98850 | 6525 ft | 158 kts | 39° |
| 2026-04-28 08:34 | 28.31922 | -13.98046 | 6531 ft | 158 kts | 39° |
| 2026-04-28 08:34 | 28.32764 | -13.97242 | 6530 ft | 158 kts | 39° |
| 2026-04-28 08:34 | 28.33606 | -13.96439 | 6531 ft | 158 kts | 39° |
| 2026-04-28 08:35 | 28.34447 | -13.95637 | 6534 ft | 158 kts | 39° |
| 2026-04-28 08:35 | 28.35344 | -13.94915 | 6503 ft | 160 kts | 26° |
| 2026-04-28 08:35 | 28.36346 | -13.94374 | 6516 ft | 158 kts | 24° |
| 2026-04-28 08:35 | 28.37330 | -13.93849 | 6547 ft | 156 kts | 24° |
| 2026-04-28 08:36 | 28.38324 | -13.93321 | 6519 ft | 158 kts | 24° |
| 2026-04-28 08:36 | 28.39319 | -13.92795 | 6538 ft | 157 kts | 24° |
| 2026-04-28 08:36 | 28.40310 | -13.92272 | 6533 ft | 158 kts | 24° |
| 2026-04-28 08:36 | 28.41307 | -13.91746 | 6535 ft | 157 kts | 24° |
| 2026-04-28 08:37 | 28.42302 | -13.91222 | 6542 ft | 157 kts | 24° |
| 2026-04-28 08:37 | 28.43283 | -13.90706 | 6543 ft | 157 kts | 24° |
| 2026-04-28 08:37 | 28.44277 | -13.90185 | 6546 ft | 157 kts | 24° |
| 2026-04-28 08:37 | 28.45273 | -13.89663 | 6543 ft | 158 kts | 24° |
| 2026-04-28 08:38 | 28.46267 | -13.89143 | 6550 ft | 157 kts | 24° |
| 2026-04-28 08:38 | 28.47262 | -13.88623 | 6550 ft | 157 kts | 24° |
| 2026-04-28 08:38 | 28.48256 | -13.88104 | 6555 ft | 157 kts | 24° |
| 2026-04-28 08:38 | 28.49252 | -13.87585 | 6561 ft | 157 kts | 24° |
| 2026-04-28 08:39 | 28.50248 | -13.87067 | 6568 ft | 157 kts | 24° |
| 2026-04-28 08:39 | 28.51244 | -13.86550 | 6572 ft | 157 kts | 24° |
| 2026-04-28 08:39 | 28.52241 | -13.86033 | 6575 ft | 157 kts | 24° |
| 2026-04-28 08:39 | 28.53236 | -13.85517 | 6581 ft | 157 kts | 24° |
| 2026-04-28 08:40 | 28.54232 | -13.85002 | 6583 ft | 157 kts | 24° |
| 2026-04-28 08:40 | 28.55227 | -13.84487 | 6590 ft | 157 kts | 24° |
| 2026-04-28 08:40 | 28.56225 | -13.83973 | 6598 ft | 157 kts | 24° |
| 2026-04-28 08:40 | 28.57209 | -13.83467 | 6604 ft | 157 kts | 24° |
| 2026-04-28 08:41 | 28.58204 | -13.82954 | 6613 ft | 157 kts | 24° |
| 2026-04-28 08:41 | 28.59202 | -13.82442 | 6624 ft | 157 kts | 24° |
| 2026-04-28 08:41 | 28.60198 | -13.81931 | 6629 ft | 157 kts | 24° |
| 2026-04-28 08:41 | 28.61182 | -13.81389 | 6624 ft | 158 kts | 30° |
| 2026-04-28 08:42 | 28.62109 | -13.80714 | 6623 ft | 158 kts | 32° |
| 2026-04-28 08:42 | 28.63025 | -13.80036 | 6646 ft | 157 kts | 32° |
| 2026-04-28 08:42 | 28.63633 | -13.79586 | 6636 ft | 158 kts | 32° |
| 2026-04-28 08:42 | 28.64554 | -13.78904 | 6639 ft | 158 kts | 32° |
| 2026-04-28 08:43 | 28.65472 | -13.78226 | 6656 ft | 157 kts | 32° |
| 2026-04-28 08:43 | 28.66391 | -13.77547 | 6654 ft | 158 kts | 32° |
| 2026-04-28 08:43 | 28.67310 | -13.76868 | 6658 ft | 157 kts | 32° |
| 2026-04-28 08:43 | 28.68251 | -13.76193 | 6546 ft | 164 kts | 31° |
| 2026-04-28 08:44 | 28.69222 | -13.75506 | 6490 ft | 163 kts | 31° |
| 2026-04-28 08:44 | 28.70220 | -13.74801 | 6174 ft | 176 kts | 31° |
| 2026-04-28 08:44 | 28.71268 | -13.74066 | 5998 ft | 175 kts | 31° |
| 2026-04-28 08:44 | 28.72320 | -13.73356 | 5733 ft | 179 kts | 28° |
| 2026-04-28 08:45 | 28.73424 | -13.72672 | 5465 ft | 180 kts | 28° |
| 2026-04-28 08:45 | 28.74534 | -13.71979 | 5088 ft | 185 kts | 28° |
| 2026-04-28 08:45 | 28.75677 | -13.71271 | 4740 ft | 186 kts | 28° |
| 2026-04-28 08:45 | 28.76808 | -13.70594 | 4511 ft | 182 kts | 26° |
| 2026-04-28 08:46 | 28.77936 | -13.69949 | 4219 ft | 182 kts | 26° |
| 2026-04-28 08:46 | 28.79074 | -13.69297 | 3933 ft | 182 kts | 26° |
| 2026-04-28 08:46 | 28.80203 | -13.68651 | 3688 ft | 181 kts | 26° |
| 2026-04-28 08:46 | 28.81328 | -13.68008 | 3349 ft | 184 kts | 26° |
| 2026-04-28 08:47 | 28.82480 | -13.67362 | 2758 ft | 186 kts | 25° |
| 2026-04-28 08:47 | 28.83620 | -13.66740 | 2166 ft | 177 kts | 25° |
| 2026-04-28 08:47 | 28.84706 | -13.66125 | 1642 ft | 172 kts | 26° |
| 2026-04-28 08:47 | 28.85763 | -13.65516 | 1172 ft | 166 kts | 26° |
| 2026-04-28 08:48 | 28.86763 | -13.64933 | 822 ft | 159 kts | 26° |
| 2026-04-28 08:48 | 28.87766 | -13.64357 | 308 ft | 163 kts | 26° |
| 2026-04-28 08:48 | 28.88748 | -13.63786 | 143 ft | 146 kts | 28° |
| 2026-04-28 08:48 | 28.89556 | -13.63260 | 269 ft | 122 kts | 30° |
| 2026-04-28 08:49 | 28.90238 | -13.62801 | 400 ft | 102 kts | 26° |
| 2026-04-28 08:49 | 28.90821 | -13.62504 | 425 ft | 88 kts | 23° |
| 2026-04-28 08:49 | 28.91357 | -13.62260 | 443 ft | 79 kts | 20° |
| 2026-04-28 08:49 | 28.91843 | -13.62027 | 447 ft | 73 kts | 22° |
| 2026-04-28 08:50 | 28.92309 | -13.61785 | 397 ft | 76 kts | 23° |
| 2026-04-28 08:50 | 28.92763 | -13.61542 | 309 ft | 71 kts | 25° |
| 2026-04-28 08:50 | 28.93204 | -13.61297 | 184 ft | 71 kts | 25° |
| 2026-04-28 08:50 | 28.93650 | -13.61044 | 50 ft | 69 kts | 26° |
| 2026-04-28 08:51 | 28.93985 | -13.60848 | 21 ft | 39 kts | 26° |
| 2026-04-28 08:51 | 28.94192 | -13.60731 | 24 ft | 28 kts | 25° |
| 2026-04-28 08:51 | 28.94310 | -13.60665 | 25 ft | 9 kts | 17° |
| 2026-04-28 08:51 | 28.94379 | -13.60746 | 24 ft | 20 kts | 292° |
| 2026-04-28 08:52 | 28.94485 | -13.60766 | 26 ft | 23 kts | 26° |
| 2026-04-28 08:52 | 28.94668 | -13.60663 | 28 ft | 33 kts | 25° |
| 2026-04-28 08:52 | 28.94832 | -13.60571 | 31 ft | 18 kts | 14° |
| 2026-04-28 08:52 | 28.94898 | -13.60648 | 31 ft | 13 kts | 299° |
| 2026-04-28 08:53 | 28.94895 | -13.60702 | 31 ft | 7 kts | 216° |
| 2026-04-28 08:53 | 28.94842 | -13.60686 | 30 ft | 14 kts | 159° |
| 2026-04-28 08:53 | 28.94804 | -13.60672 | 30 ft | 0 kts | 162° |